createdAt,value
2023-01-23T00:00:51.981Z,10.87
2023-01-23T00:03:22.901Z,9.70
2023-01-23T00:06:00.418Z,10.57
2023-01-23T00:08:31.839Z,10.50
2023-01-23T00:11:03.965Z,10.70
2023-01-23T00:13:34.950Z,9.97
2023-01-23T00:16:13.417Z,10.60
2023-01-23T00:18:44.677Z,9.07
2023-01-23T00:21:17.429Z,10.53
2023-01-23T00:23:49.622Z,9.70
2023-01-23T00:26:22.230Z,9.77
2023-01-23T00:28:53.604Z,9.03
2023-01-23T00:31:26.152Z,9.87
2023-01-23T00:33:58.665Z,9.60
2023-01-23T00:36:33.000Z,10.60
2023-01-23T00:39:03.808Z,9.33
2023-01-23T00:41:34.715Z,10.60
2023-01-23T00:44:05.667Z,11.07
2023-01-23T00:46:36.321Z,10.00
2023-01-23T00:49:07.648Z,9.37
2023-01-23T00:51:38.424Z,9.60
2023-01-23T00:54:09.210Z,9.63
2023-01-23T00:56:39.845Z,9.03
2023-01-23T00:59:10.546Z,8.93
2023-01-23T01:01:41.686Z,8.93
2023-01-23T01:04:12.612Z,8.70
2023-01-23T01:06:43.258Z,9.47
2023-01-23T01:09:13.861Z,9.30
2023-01-23T01:11:44.545Z,10.03
2023-01-23T01:14:15.905Z,10.43
2023-01-23T01:16:47.050Z,9.00
2023-01-23T01:19:18.586Z,9.00
2023-01-23T01:21:49.272Z,8.40
2023-01-23T01:24:19.959Z,9.87
2023-01-23T01:26:50.684Z,9.67
2023-01-23T01:29:21.263Z,8.47
2023-01-23T01:31:51.995Z,8.57
2023-01-23T01:34:23.673Z,8.87
2023-01-23T01:36:54.450Z,9.20
2023-01-23T01:39:25.011Z,9.63
2023-01-23T01:41:55.677Z,8.93
2023-01-23T01:44:26.916Z,8.97
2023-01-23T01:46:57.546Z,9.53
2023-01-23T01:49:31.823Z,8.17
2023-01-23T01:52:05.508Z,8.07
2023-01-23T01:54:40.299Z,8.90
2023-01-23T01:57:13.939Z,9.43
2023-01-23T01:59:47.580Z,9.33
2023-01-23T02:02:21.121Z,8.20
2023-01-23T02:04:54.428Z,8.53
2023-01-23T02:07:28.094Z,8.33
2023-01-23T02:09:59.087Z,8.17
2023-01-23T02:12:30.063Z,10.10
2023-01-23T02:15:01.469Z,8.77
2023-01-23T02:17:33.961Z,9.20
2023-01-23T02:20:07.795Z,8.67
2023-01-23T02:22:43.724Z,9.03
2023-01-23T02:25:18.596Z,8.43
2023-01-23T02:27:49.365Z,9.57
2023-01-23T02:30:21.877Z,9.00
2023-01-23T02:32:52.980Z,9.20
2023-01-23T02:35:28.221Z,8.50
2023-01-23T02:38:02.028Z,8.50
2023-01-23T02:40:37.320Z,9.30
2023-01-23T02:43:10.670Z,8.43
2023-01-23T02:45:42.473Z,8.63
2023-01-23T02:48:13.083Z,8.57
2023-01-23T02:50:45.728Z,9.03
2023-01-23T02:53:16.685Z,9.00
2023-01-23T02:55:47.293Z,8.77
2023-01-23T02:58:35.766Z,8.90
2023-01-23T03:01:06.667Z,9.20
2023-01-23T03:03:37.371Z,8.37
2023-01-23T03:06:09.028Z,8.63
2023-01-23T03:08:41.310Z,8.50
2023-01-23T03:11:11.916Z,8.63
2023-01-23T03:13:42.807Z,8.23
2023-01-23T03:16:13.513Z,9.70
2023-01-23T03:18:53.795Z,8.23
2023-01-23T03:21:17.382Z,8.70
2023-01-23T03:23:48.508Z,8.30
2023-01-23T03:26:19.176Z,8.40
2023-01-23T03:29:07.418Z,8.23
2023-01-23T03:31:38.046Z,8.67
2023-01-23T03:34:08.972Z,8.50
2023-01-23T03:36:39.648Z,8.43
2023-01-23T03:39:28.556Z,8.17
2023-01-23T03:41:59.234Z,9.53
2023-01-23T03:44:29.959Z,9.50
2023-01-23T03:47:00.557Z,9.13
2023-01-23T03:49:31.876Z,9.17
2023-01-23T03:52:02.846Z,7.70
2023-01-23T03:54:33.733Z,7.83
2023-01-23T03:57:04.539Z,8.13
2023-01-23T03:59:35.296Z,9.13
2023-01-23T04:02:05.890Z,7.80
2023-01-23T04:04:37.468Z,8.57
2023-01-23T04:07:09.440Z,8.87
2023-01-23T04:09:40.432Z,8.10
2023-01-23T04:12:11.077Z,8.90
2023-01-23T04:14:41.718Z,8.90
2023-01-23T04:17:13.824Z,9.03
2023-01-23T04:19:44.443Z,8.57
2023-01-23T04:22:15.071Z,8.63
2023-01-23T04:24:45.780Z,8.97
2023-01-23T04:27:16.437Z,8.47
2023-01-23T04:29:47.957Z,8.90
2023-01-23T04:32:18.705Z,8.10
2023-01-23T04:34:50.355Z,8.67
2023-01-23T04:37:21.065Z,8.27
2023-01-23T04:39:51.696Z,9.47
2023-01-23T04:42:22.479Z,9.27
2023-01-23T04:44:54.222Z,8.73
2023-01-23T04:47:24.863Z,9.70
2023-01-23T04:49:55.450Z,8.00
2023-01-23T04:52:26.023Z,9.13
2023-01-23T04:54:56.875Z,8.67
2023-01-23T04:57:27.872Z,8.87
2023-01-23T05:00:00.361Z,9.60
2023-01-23T05:02:31.026Z,9.03
2023-01-23T05:05:01.773Z,8.90
2023-01-23T05:07:32.565Z,8.63
2023-01-23T05:10:03.269Z,8.77
2023-01-23T05:12:34.617Z,9.30
2023-01-23T05:15:05.713Z,9.33
2023-01-23T05:17:36.464Z,8.90
2023-01-23T05:20:09.653Z,8.57
2023-01-23T05:22:41.982Z,9.23
2023-01-23T05:25:12.971Z,8.93
2023-01-23T05:27:43.676Z,9.40
2023-01-23T05:30:15.671Z,9.27
2023-01-23T05:32:46.600Z,8.73
2023-01-23T05:35:18.125Z,9.10
2023-01-23T05:37:52.207Z,8.33
2023-01-23T05:40:23.962Z,8.33
2023-01-23T05:42:54.737Z,8.73
2023-01-23T05:48:04.869Z,8.37
2023-01-23T05:50:35.531Z,8.40
2023-01-23T05:53:06.270Z,7.63
2023-01-23T05:55:38.714Z,6.03
2023-01-23T05:58:09.497Z,8.47
2023-01-23T06:00:40.121Z,8.73
2023-01-23T06:03:10.858Z,8.27
2023-01-23T06:05:42.805Z,8.00
2023-01-23T06:08:13.521Z,9.98
2023-01-23T06:10:44.167Z,9.00
2023-01-23T06:13:15.080Z,9.37
2023-01-23T06:15:45.773Z,9.43
2023-01-23T06:18:16.590Z,8.93
2023-01-23T06:20:47.454Z,9.17
2023-01-23T06:23:18.530Z,8.23
2023-01-23T06:25:49.233Z,8.10
2023-01-23T06:28:19.778Z,9.03
2023-01-23T06:30:50.493Z,9.33
2023-01-23T06:33:21.100Z,8.77
2023-01-23T06:35:53.268Z,8.73
2023-01-23T06:38:23.883Z,8.50
2023-01-23T06:40:54.622Z,8.47
2023-01-23T06:43:25.931Z,8.37
2023-01-23T06:45:56.753Z,8.33
2023-01-23T06:48:27.519Z,8.37
2023-01-23T06:51:01.711Z,9.13
2023-01-23T06:53:32.956Z,8.07
2023-01-23T06:56:06.383Z,8.07
2023-01-23T06:58:39.051Z,8.73
2023-01-23T07:01:16.170Z,9.43
2023-01-23T07:03:47.067Z,8.47
2023-01-23T07:06:18.435Z,8.33
2023-01-23T07:08:50.246Z,7.77
2023-01-23T07:11:20.895Z,9.37
2023-01-23T07:13:51.635Z,7.77
2023-01-23T07:16:22.970Z,8.17
2023-01-23T07:18:54.124Z,9.10
2023-01-23T07:21:24.899Z,8.43
2023-01-23T07:23:55.575Z,8.97
2023-01-23T07:26:26.245Z,9.27
2023-01-23T07:28:57.023Z,9.07
2023-01-23T07:31:27.669Z,9.50
2023-01-23T07:33:58.345Z,10.07
2023-01-23T07:36:30.324Z,9.13
2023-01-23T07:39:00.994Z,9.40
2023-01-23T07:41:31.798Z,9.00
2023-01-23T07:44:02.423Z,9.37
2023-01-23T07:46:33.105Z,9.53
2023-01-23T07:49:03.846Z,9.20
2023-01-23T07:51:35.352Z,9.73
2023-01-23T07:54:06.132Z,9.63
2023-01-23T07:56:36.881Z,7.87
2023-01-23T07:59:07.481Z,9.13
2023-01-23T08:01:38.036Z,9.77
2023-01-23T08:04:08.993Z,9.03
2023-01-23T08:06:39.653Z,9.93
2023-01-23T08:09:10.328Z,10.30
2023-01-23T08:11:41.004Z,9.83
2023-01-23T08:16:52.694Z,9.57
2023-01-23T08:19:24.932Z,9.67
2023-01-23T08:21:55.689Z,10.30
2023-01-23T08:24:26.303Z,10.13
2023-01-23T08:26:57.053Z,8.83
2023-01-23T08:29:27.877Z,9.50
2023-01-23T08:31:58.583Z,9.37
2023-01-23T08:34:29.548Z,9.43
2023-01-23T08:37:00.155Z,10.47
2023-01-23T08:39:31.505Z,9.20
2023-01-23T08:42:02.161Z,9.70
2023-01-23T08:44:34.536Z,10.00
2023-01-23T08:47:05.612Z,10.50
2023-01-23T08:49:36.315Z,10.53
2023-01-23T08:52:07.141Z,10.60
2023-01-23T08:54:37.937Z,10.17
2023-01-23T08:57:08.503Z,10.63
2023-01-23T08:59:39.184Z,10.13
2023-01-23T09:02:11.276Z,9.20
2023-01-23T09:04:42.242Z,8.50
2023-01-23T09:07:12.823Z,9.93
2023-01-23T09:09:43.441Z,10.10
2023-01-23T09:12:14.063Z,9.30
2023-01-23T09:14:44.988Z,9.67
2023-01-23T09:17:15.617Z,9.97
2023-01-23T09:19:46.239Z,10.27
2023-01-23T09:22:17.616Z,9.67
2023-01-23T09:24:48.449Z,9.33
2023-01-23T09:27:19.379Z,10.30
2023-01-23T09:29:50.635Z,9.13
2023-01-23T09:32:21.616Z,9.97
2023-01-23T09:34:52.314Z,9.90
2023-01-23T09:37:23.279Z,8.43
2023-01-23T09:39:53.943Z,10.13
2023-01-23T09:42:27.684Z,9.90
2023-01-23T09:45:01.727Z,9.13
2023-01-23T09:47:35.553Z,9.73
2023-01-23T09:50:10.266Z,9.23
2023-01-23T09:52:44.225Z,10.20
2023-01-23T09:55:18.715Z,9.27
2023-01-23T09:57:53.174Z,10.17
2023-01-23T10:00:27.712Z,10.00
2023-01-23T10:02:59.227Z,10.03
2023-01-23T10:05:33.379Z,9.30
2023-01-23T10:08:09.199Z,10.17
2023-01-23T10:13:51.641Z,9.27
2023-01-23T10:16:49.399Z,9.57
2023-01-23T10:19:15.007Z,9.17
2023-01-23T10:21:49.040Z,9.43
2023-01-23T10:24:40.061Z,9.90
2023-01-23T10:27:10.811Z,9.60
2023-01-23T10:29:44.023Z,10.50
2023-01-23T10:32:25.751Z,10.03
2023-01-23T10:35:00.115Z,10.00
2023-01-23T10:37:44.708Z,10.37
2023-01-23T10:40:16.421Z,9.40
2023-01-23T10:42:47.050Z,10.70
2023-01-23T10:45:21.351Z,10.13
2023-01-23T10:47:55.116Z,9.93
2023-01-23T10:50:36.585Z,10.43
2023-01-23T10:53:11.724Z,10.53
2023-01-23T10:55:46.470Z,9.67
2023-01-23T10:58:28.947Z,9.93
2023-01-23T11:00:59.799Z,10.33
2023-01-23T11:03:33.663Z,10.17
2023-01-23T11:06:07.351Z,11.63
2023-01-23T11:08:40.637Z,9.17
2023-01-23T11:11:26.987Z,10.27
2023-01-23T11:14:09.792Z,9.93
2023-01-23T11:16:41.278Z,10.37
2023-01-23T11:19:19.737Z,10.17
2023-01-23T11:21:56.557Z,11.30
2023-01-23T11:24:41.419Z,10.67
2023-01-23T11:27:19.407Z,11.17
2023-01-23T11:30:02.760Z,10.97
2023-01-23T11:32:36.949Z,10.23
2023-01-23T11:35:14.471Z,9.73
2023-01-23T11:37:45.418Z,10.27
2023-01-23T11:40:19.081Z,10.20
2023-01-23T11:42:50.296Z,9.70
2023-01-23T11:45:28.857Z,10.53
2023-01-23T11:48:10.819Z,9.30
2023-01-23T11:50:54.977Z,10.10
2023-01-23T11:53:40.789Z,9.00
2023-01-23T11:56:11.078Z,9.43
2023-01-23T11:58:57.553Z,9.93
2023-01-23T12:01:32.892Z,10.30
2023-01-23T12:04:36.990Z,9.40
2023-01-23T12:07:17.770Z,9.60
2023-01-23T12:09:56.124Z,10.63
2023-01-23T12:12:33.470Z,9.60
2023-01-23T12:15:07.584Z,9.50
2023-01-23T12:17:43.479Z,10.47
2023-01-23T12:20:27.781Z,9.53
2023-01-23T12:23:09.315Z,9.60
2023-01-23T12:25:41.406Z,10.23
2023-01-23T12:28:20.389Z,9.47
2023-01-23T12:31:14.270Z,10.20
2023-01-23T12:34:11.858Z,9.27
2023-01-23T12:37:08.689Z,10.13
2023-01-23T12:39:32.311Z,9.17
2023-01-23T12:42:05.924Z,10.50
2023-01-23T12:44:39.793Z,9.80
2023-01-23T12:47:13.405Z,9.47
2023-01-23T12:49:47.098Z,11.40
2023-01-23T12:52:21.563Z,10.10
2023-01-23T12:54:55.445Z,10.57
2023-01-23T12:58:08.118Z,10.90
2023-01-23T13:00:39.262Z,9.63
2023-01-23T13:03:24.669Z,11.03
2023-01-23T13:06:05.532Z,10.10
2023-01-23T13:08:57.756Z,10.80
2023-01-23T13:11:32.282Z,11.03
2023-01-23T13:14:03.006Z,10.13
2023-01-23T13:16:34.152Z,10.83
2023-01-23T13:19:42.940Z,9.53
2023-01-23T13:22:27.448Z,10.10
2023-01-23T13:25:14.223Z,10.10
2023-01-23T13:27:48.092Z,9.30
2023-01-23T13:34:13.999Z,9.07
2023-01-23T13:36:35.044Z,9.53
2023-01-23T13:39:25.787Z,10.13
2023-01-23T13:42:23.572Z,9.03
2023-01-23T13:45:27.384Z,10.03
2023-01-23T13:48:23.086Z,9.47
2023-01-23T13:51:15.165Z,10.27
2023-01-23T13:54:06.189Z,9.10
2023-01-23T13:56:42.184Z,10.33
2023-01-23T13:59:16.833Z,8.60
2023-01-23T14:02:10.092Z,10.03
2023-01-23T14:05:01.332Z,9.57
2023-01-23T14:07:51.029Z,9.87
2023-01-23T14:10:25.370Z,9.67
2023-01-23T14:13:06.796Z,10.33
2023-01-23T14:15:57.386Z,9.83
2023-01-23T14:18:40.620Z,9.40
2023-01-23T14:21:20.892Z,9.03
2023-01-23T14:23:54.259Z,9.17
2023-01-23T14:26:27.728Z,9.57
2023-01-23T14:29:00.632Z,9.30
2023-01-23T14:31:33.240Z,9.53
2023-01-23T14:34:10.691Z,9.30
2023-01-23T14:36:41.806Z,8.70
2023-01-23T14:39:18.279Z,9.87
2023-01-23T14:41:49.881Z,8.80
2023-01-23T14:44:23.647Z,8.63
2023-01-23T14:46:57.089Z,9.37
2023-01-23T14:49:30.994Z,8.73
2023-01-23T14:52:03.720Z,9.07
2023-01-23T14:54:37.863Z,9.30
2023-01-23T14:57:11.090Z,8.70
2023-01-23T14:59:44.456Z,9.27
2023-01-23T15:02:35.514Z,8.73
2023-01-23T15:05:25.252Z,7.70
2023-01-23T15:07:58.763Z,8.13
2023-01-23T15:10:32.320Z,7.83
2023-01-23T15:13:05.368Z,8.40
2023-01-23T15:15:37.678Z,8.87
2023-01-23T15:18:11.694Z,9.03
2023-01-23T15:20:43.080Z,8.77
2023-01-23T15:23:32.028Z,8.77
2023-01-23T15:26:14.992Z,8.90
2023-01-23T15:28:53.885Z,8.80
2023-01-23T15:31:34.634Z,8.83
2023-01-23T15:34:21.581Z,7.63
2023-01-23T15:36:55.885Z,9.50
2023-01-23T15:39:29.718Z,7.77
2023-01-23T15:42:02.579Z,9.03
2023-01-23T15:44:35.465Z,7.33
2023-01-23T15:47:06.704Z,8.07
2023-01-23T15:49:39.438Z,7.47
2023-01-23T15:52:21.712Z,8.97
2023-01-23T15:54:54.517Z,8.70
2023-01-23T15:57:25.487Z,8.33
2023-01-23T15:59:56.110Z,8.57
2023-01-23T16:02:32.627Z,8.00
2023-01-23T16:05:01.291Z,8.77
2023-01-23T16:07:34.983Z,8.83
2023-01-23T16:10:09.091Z,8.60
2023-01-23T16:12:40.220Z,8.43
2023-01-23T16:15:17.159Z,9.53
2023-01-23T16:17:48.917Z,8.57
2023-01-23T16:20:21.997Z,9.00
2023-01-23T16:22:56.112Z,9.53
2023-01-23T16:28:07.356Z,9.43
2023-01-23T16:30:38.125Z,9.43
2023-01-23T16:33:09.089Z,10.00
2023-01-23T16:35:40.079Z,9.87
2023-01-23T16:38:15.090Z,9.97
2023-01-23T16:40:46.229Z,9.27
2023-01-23T16:43:17.047Z,8.50
2023-01-23T16:45:47.831Z,9.30
2023-01-23T16:48:27.153Z,8.70
2023-01-23T16:50:54.359Z,8.87
2023-01-23T16:56:07.935Z,9.60
2023-01-23T16:58:41.236Z,9.30
2023-01-23T17:01:15.944Z,10.47
2023-01-23T17:03:48.606Z,9.53
2023-01-23T17:06:19.924Z,8.73
2023-01-23T17:08:52.556Z,9.17
2023-01-23T17:14:07.990Z,8.80
2023-01-23T17:16:38.912Z,8.23
2023-01-23T17:19:13.659Z,8.83
2023-01-23T17:21:45.157Z,8.77
2023-01-23T17:24:18.170Z,8.90
2023-01-23T17:26:49.235Z,8.57
2023-01-23T17:29:20.833Z,8.97
2023-01-23T17:31:52.561Z,8.37
2023-01-23T17:34:26.419Z,8.83
2023-01-23T17:36:59.094Z,8.77
2023-01-23T17:39:29.915Z,9.00
2023-01-23T17:42:00.711Z,9.17
2023-01-23T17:44:31.485Z,9.57
2023-01-23T17:47:02.394Z,8.33
2023-01-23T17:49:34.180Z,8.63
2023-01-23T17:52:05.284Z,9.10
2023-01-23T17:54:37.707Z,9.77
2023-01-23T17:57:08.581Z,9.00
2023-01-23T17:59:39.342Z,10.67
2023-01-23T18:02:21.942Z,9.37
2023-01-23T18:04:52.639Z,9.97
2023-01-23T18:07:23.547Z,8.43
2023-01-23T18:09:55.797Z,9.10
2023-01-23T18:12:30.956Z,9.33
2023-01-23T18:15:07.314Z,9.50
2023-01-23T18:17:58.495Z,8.87
2023-01-23T18:20:32.427Z,9.73
2023-01-23T18:23:07.275Z,9.83
2023-01-23T18:25:40.140Z,9.10
2023-01-23T18:28:13.814Z,9.33
2023-01-23T18:30:48.871Z,10.30
2023-01-23T18:33:49.510Z,8.60
2023-01-23T18:36:27.055Z,9.83
2023-01-23T18:39:15.450Z,9.77
2023-01-23T18:44:29.504Z,10.20
2023-01-23T18:47:02.798Z,9.53
2023-01-23T18:49:35.155Z,9.70
2023-01-23T18:54:53.057Z,9.50
2023-01-23T18:57:45.385Z,9.03
2023-01-23T19:00:20.625Z,9.10
2023-01-23T19:02:55.007Z,9.57
2023-01-23T19:05:29.631Z,9.23
2023-01-23T19:08:01.423Z,9.47
2023-01-23T19:10:47.720Z,10.53
2023-01-23T19:13:14.519Z,8.80
2023-01-23T19:15:51.079Z,10.20
2023-01-23T19:18:40.030Z,8.97
2023-01-23T19:21:14.157Z,9.50
2023-01-23T19:23:48.065Z,9.03
2023-01-23T19:26:21.531Z,9.93
2023-01-23T19:28:53.474Z,9.53
2023-01-23T19:31:27.613Z,9.70
2023-01-23T19:33:59.786Z,10.00
2023-01-23T19:36:32.073Z,9.77
2023-01-23T19:39:04.661Z,9.10
2023-01-23T19:41:40.322Z,10.13
2023-01-23T19:44:14.051Z,10.03
2023-01-23T19:46:46.160Z,10.60
2023-01-23T19:49:18.074Z,9.57
2023-01-23T19:51:49.253Z,10.80
2023-01-23T19:54:22.206Z,10.90
2023-01-23T19:56:53.158Z,10.97
2023-01-23T19:59:25.224Z,10.87
2023-01-23T20:01:56.585Z,11.30
2023-01-23T20:04:27.792Z,9.73
2023-01-23T20:06:58.769Z,10.47
2023-01-23T20:09:29.961Z,10.83
2023-01-23T20:12:00.742Z,10.27
2023-01-23T20:14:32.153Z,11.53
2023-01-23T20:17:03.314Z,10.97
2023-01-23T20:19:34.524Z,9.90
2023-01-23T20:22:05.378Z,10.63
2023-01-23T20:24:37.178Z,11.17
2023-01-23T20:27:08.126Z,10.97
2023-01-23T20:29:39.513Z,11.10
2023-01-23T20:32:10.312Z,11.03
2023-01-23T20:34:41.438Z,10.43
2023-01-23T20:37:12.194Z,10.70
2023-01-23T20:39:43.222Z,10.40
2023-01-23T20:42:14.270Z,11.17
2023-01-23T20:44:45.454Z,10.87
2023-01-23T20:47:16.491Z,11.40
2023-01-23T20:49:47.403Z,11.33
2023-01-23T20:52:39.184Z,10.60
2023-01-23T20:55:11.630Z,11.63
2023-01-23T20:58:00.180Z,10.53
2023-01-23T21:00:31.058Z,10.03
2023-01-23T21:03:01.858Z,11.27
2023-01-23T21:05:32.726Z,10.97
2023-01-23T21:08:03.612Z,11.60
2023-01-23T21:10:34.609Z,10.27
2023-01-23T21:13:05.258Z,10.17
2023-01-23T21:15:35.954Z,10.77
2023-01-23T21:18:06.762Z,10.70
2023-01-23T21:20:39.335Z,10.67
2023-01-23T21:23:09.934Z,10.53
2023-01-23T21:25:40.763Z,10.13
2023-01-23T21:28:11.586Z,11.70
2023-01-23T21:30:42.836Z,10.10
2023-01-23T21:33:13.587Z,11.20
2023-01-23T21:35:45.753Z,11.10
2023-01-23T21:38:16.381Z,11.37
2023-01-23T21:40:47.084Z,10.83
2023-01-23T21:43:17.756Z,11.43
2023-01-23T21:45:48.513Z,11.73
2023-01-23T21:48:19.177Z,11.77
2023-01-23T21:50:49.805Z,12.17
2023-01-23T21:53:20.541Z,11.67
2023-01-23T21:55:55.005Z,12.40
2023-01-23T21:58:25.755Z,12.90
2023-01-23T22:01:17.946Z,11.93
2023-01-23T22:03:49.560Z,11.83
2023-01-23T22:06:20.694Z,12.17
2023-01-23T22:08:51.897Z,11.87
2023-01-23T22:11:22.709Z,11.90
2023-01-23T22:13:53.755Z,12.17
2023-01-23T22:16:40.165Z,11.57
2023-01-23T22:18:57.489Z,12.07
2023-01-23T22:21:28.514Z,10.70
2023-01-23T22:23:59.288Z,11.47
2023-01-23T22:26:30.129Z,11.67
2023-01-23T22:29:00.820Z,12.07
2023-01-23T22:31:31.682Z,11.50
2023-01-23T22:34:02.480Z,11.90
2023-01-23T22:36:33.450Z,11.90
2023-01-23T22:39:04.069Z,13.53
2023-01-23T22:41:35.133Z,13.33
2023-01-23T22:44:06.012Z,13.23
2023-01-23T22:46:36.865Z,13.70
2023-01-23T22:49:08.374Z,13.27
2023-01-23T22:51:39.429Z,12.20
2023-01-23T22:54:10.212Z,13.03
2023-01-23T22:56:40.950Z,11.33
2023-01-23T22:59:12.312Z,13.43
2023-01-23T23:01:43.067Z,13.37
2023-01-23T23:04:13.795Z,12.47
2023-01-23T23:06:44.553Z,12.13
2023-01-23T23:09:15.206Z,11.83
2023-01-23T23:11:47.524Z,12.43
2023-01-23T23:14:18.793Z,11.77
2023-01-23T23:16:49.488Z,12.13
2023-01-23T23:19:20.154Z,13.20
2023-01-23T23:21:50.894Z,13.17
2023-01-23T23:24:21.871Z,12.30
2023-01-23T23:26:52.651Z,13.58
2023-01-23T23:29:23.621Z,12.47
2023-01-23T23:31:54.676Z,12.37
2023-01-23T23:34:25.379Z,12.63
2023-01-23T23:36:56.134Z,11.20
2023-01-23T23:39:27.064Z,10.67
2023-01-23T23:41:58.794Z,12.07
2023-01-23T23:44:29.502Z,11.83
2023-01-23T23:47:00.319Z,10.93
2023-01-23T23:49:31.086Z,13.65
2023-01-23T23:52:01.969Z,11.90
2023-01-23T23:54:33.603Z,12.50
2023-01-23T23:57:04.409Z,12.37
2023-01-23T23:59:35.201Z,12.60
